Terminal Aerodrome Forecast
Issued by NWS

Home | Current Version | Previous Version | Text Only | Print | Product List | Glossary On
Versions: 1 2 3 4 5 6 7 8 9 10 11 12 13 14 15 16 17
000
FTUS41 KGYX 202320
TAFPSM
TAF
KPSM 202320Z 2100/2124 02004KT P6SM OVC035
     FM210900 01005KT 5SM -SN OVC025
     FM211500 01005KT P6SM OVC025=

USA.gov is the U.S. government's official web portal to all federal, state and local government web resources and services.